Mashpee, Massachusetts
Current Conditions -  °F | °C
As of 1:35 AM on Saturday 20 Dec 2014 (Local Time) from KFMH Reporting Station
Overcast Overcast  
Wind Chill: 24°   Ceiling: 3000
Heat Index: 30°   Visibility: 10mi
Dew Point: 23°   Wind: 6mph
Humidity: 75%   Direction: 330°NNW
Pressure: 30.15"   Gusts: NA
Location:  41.57°N, 70.48°W
Report Text: KFMH 200635Z AUTO 33005KT 10SM OVC030 M01/M05 A3015 RMK AO2
Loading
Personal Weather Stations






























Interactive Weather Map New forecast layout! Learn more

10-Day Weather Forecast

Advertisements
Track Severe Weather on mobile